Terminal Aerodrome Forecast
Issued by NWS

Home | Current Version | Previous Version | Text Only | Print | Product List | Glossary Off
Versions: 1 2 3 4 5 6 7 8 9 10 11 12 13 14 15 16

180
FTUS43 KOAX 210520
TAFCDR
TAF
KCDR 210520Z 2106/2206 24012KT P6SM BKN200
     FM211600 25020G30KT P6SM BKN200
     FM211900 27030G40KT P6SM BKN200
     FM220100 25015G25KT P6SM BKN200=

USA.gov is the U.S. government's official web portal to all federal, state and local government web resources and services.